createdAt,value
2018-05-10T00:00:21.646Z,8.70
2018-05-10T00:02:49.230Z,8.93
2018-05-10T00:05:16.872Z,7.50
2018-05-10T00:07:44.492Z,7.97
2018-05-10T00:10:12.850Z,8.30
2018-05-10T00:12:40.439Z,7.50
2018-05-10T00:15:08.798Z,8.00
2018-05-10T00:17:36.359Z,8.57
2018-05-10T00:20:03.982Z,8.80
2018-05-10T00:22:31.538Z,8.03
2018-05-10T00:24:59.099Z,8.23
2018-05-10T00:27:26.791Z,8.50
2018-05-10T00:29:54.378Z,9.40
2018-05-10T00:32:21.970Z,8.20
2018-05-10T00:34:49.560Z,7.90
2018-05-10T00:37:17.193Z,9.40
2018-05-10T00:39:44.775Z,8.90
2018-05-10T00:42:12.331Z,9.50
2018-05-10T00:44:39.917Z,8.60
2018-05-10T00:47:07.479Z,8.07
2018-05-10T00:49:35.086Z,9.00
2018-05-10T00:52:02.642Z,9.93
2018-05-10T00:54:42.978Z,9.53
2018-05-10T00:57:10.590Z,9.80
2018-05-10T00:59:38.173Z,8.70
2018-05-10T01:02:05.783Z,8.97
2018-05-10T01:04:34.145Z,8.00
2018-05-10T01:07:01.741Z,8.80
2018-05-10T01:09:29.303Z,9.00
2018-05-10T01:11:56.895Z,8.90
2018-05-10T01:14:24.507Z,8.93
2018-05-10T01:16:52.854Z,8.37
2018-05-10T01:19:20.467Z,8.60
2018-05-10T01:21:48.050Z,9.60
2018-05-10T01:24:15.659Z,9.10
2018-05-10T01:26:43.981Z,9.07
2018-05-10T01:29:11.566Z,7.97
2018-05-10T01:31:39.150Z,8.17
2018-05-10T01:34:06.755Z,9.57
2018-05-10T01:36:34.314Z,8.47
2018-05-10T01:39:01.920Z,9.10
2018-05-10T01:41:29.542Z,8.60
2018-05-10T01:43:57.098Z,9.60
2018-05-10T01:46:24.682Z,8.77
2018-05-10T01:48:52.267Z,8.73
2018-05-10T01:51:19.855Z,9.33
2018-05-10T01:53:48.201Z,8.53
2018-05-10T01:56:15.760Z,8.37
2018-05-10T01:58:43.374Z,8.13
2018-05-10T02:01:10.958Z,8.90
2018-05-10T02:03:38.565Z,9.20
2018-05-10T02:06:06.127Z,8.70
2018-05-10T02:08:34.475Z,8.40
2018-05-10T02:11:02.065Z,8.30
2018-05-10T02:13:30.414Z,8.93
2018-05-10T02:15:57.999Z,9.67
2018-05-10T02:18:25.611Z,9.43
2018-05-10T02:20:53.198Z,7.70
2018-05-10T02:23:20.827Z,9.13
2018-05-10T02:25:48.391Z,10.37
2018-05-10T02:28:15.983Z,8.03
2018-05-10T02:30:43.571Z,8.80
2018-05-10T02:33:11.151Z,8.77
2018-05-10T02:35:38.748Z,9.10
2018-05-10T02:38:06.310Z,8.90
2018-05-10T02:40:33.907Z,8.23
2018-05-10T02:43:02.291Z,8.63
2018-05-10T02:45:30.644Z,7.60
2018-05-10T02:47:58.259Z,8.23
2018-05-10T02:50:25.847Z,9.60
2018-05-10T02:52:53.434Z,8.53
2018-05-10T02:55:20.992Z,8.30
2018-05-10T02:57:48.614Z,8.20
2018-05-10T03:00:16.962Z,8.67
2018-05-10T03:02:44.575Z,9.03
2018-05-10T03:05:12.131Z,9.20
2018-05-10T03:07:39.742Z,9.33
2018-05-10T03:10:07.326Z,7.60
2018-05-10T03:12:34.934Z,7.87
2018-05-10T03:15:02.519Z,7.90
2018-05-10T03:17:30.131Z,8.83
2018-05-10T03:19:57.694Z,7.90
2018-05-10T03:22:25.284Z,8.33
2018-05-10T03:24:52.882Z,7.93
2018-05-10T03:27:22.474Z,7.73
2018-05-10T03:29:50.033Z,8.80
2018-05-10T03:32:17.642Z,8.60
2018-05-10T03:34:45.998Z,7.80
2018-05-10T03:37:14.329Z,8.27
2018-05-10T03:39:41.911Z,9.00
2018-05-10T03:42:09.466Z,7.17
2018-05-10T03:44:37.089Z,8.33
2018-05-10T03:47:04.678Z,8.30
2018-05-10T03:49:32.462Z,8.03
2018-05-10T03:52:00.079Z,7.50
2018-05-10T03:54:27.706Z,7.67
2018-05-10T03:56:55.258Z,8.77
2018-05-10T03:59:22.814Z,7.80
2018-05-10T04:01:50.406Z,8.13
2018-05-10T04:04:29.801Z,8.27
2018-05-10T04:07:09.230Z,8.00
2018-05-10T04:12:44.338Z,6.67
2018-05-10T04:15:11.922Z,6.93
2018-05-10T04:17:39.478Z,7.60
2018-05-10T04:20:07.106Z,7.67
2018-05-10T04:22:34.658Z,7.07
2018-05-10T04:25:02.251Z,7.43
2018-05-10T04:27:29.854Z,7.53
2018-05-10T04:29:58.201Z,6.60
2018-05-10T04:32:25.807Z,7.23
2018-05-10T04:34:53.365Z,7.00
2018-05-10T04:37:20.955Z,6.50
2018-05-10T04:39:48.535Z,6.60
2018-05-10T04:42:16.092Z,6.70
2018-05-10T04:44:43.702Z,7.10
2018-05-10T04:47:11.258Z,6.17
2018-05-10T04:49:38.880Z,7.37
2018-05-10T04:52:07.202Z,6.53
2018-05-10T04:54:34.791Z,6.80
2018-05-10T04:57:02.399Z,6.40
2018-05-10T04:59:30.003Z,6.90
2018-05-10T05:01:57.590Z,6.77
2018-05-10T05:04:25.148Z,5.90
2018-05-10T05:06:53.543Z,6.30
2018-05-10T05:09:21.127Z,6.53
2018-05-10T05:11:48.794Z,5.87
2018-05-10T05:14:17.118Z,5.50
2018-05-10T05:16:45.462Z,6.60
2018-05-10T05:19:13.083Z,6.00
2018-05-10T05:21:40.690Z,7.17
2018-05-10T05:24:08.279Z,6.37
2018-05-10T05:26:36.599Z,7.37
2018-05-10T05:29:04.206Z,6.30
2018-05-10T05:31:31.795Z,6.80
2018-05-10T05:33:59.383Z,6.67
2018-05-10T05:36:26.976Z,7.00
2018-05-10T05:38:55.330Z,6.73
2018-05-10T05:41:22.991Z,6.17
2018-05-10T05:43:50.534Z,7.13
2018-05-10T05:46:18.147Z,7.53
2018-05-10T05:48:45.752Z,7.87
2018-05-10T05:51:13.448Z,7.50
2018-05-10T05:53:40.982Z,7.23
2018-05-10T05:56:08.590Z,6.57
2018-05-10T05:58:36.214Z,7.40
2018-05-10T06:01:03.774Z,7.30
2018-05-10T06:03:31.362Z,7.40
2018-05-10T06:05:59.711Z,6.43
2018-05-10T06:08:27.281Z,6.73
2018-05-10T06:10:54.841Z,7.93
2018-05-10T06:13:22.437Z,8.10
2018-05-10T06:15:50.117Z,7.30
2018-05-10T06:18:17.671Z,6.97
2018-05-10T06:20:45.240Z,6.37
2018-05-10T06:23:12.870Z,7.77
2018-05-10T06:25:41.199Z,7.57
2018-05-10T06:28:09.549Z,7.23
2018-05-10T06:30:37.130Z,7.30
2018-05-10T06:33:04.686Z,8.03
2018-05-10T06:35:32.304Z,7.60
2018-05-10T06:37:59.919Z,6.67
2018-05-10T06:40:27.502Z,6.67
2018-05-10T06:42:55.063Z,7.33
2018-05-10T06:45:22.646Z,7.13
2018-05-10T06:47:50.227Z,6.83
2018-05-10T06:50:17.794Z,6.50
2018-05-10T06:52:46.171Z,7.33
2018-05-10T06:55:14.495Z,5.50
2018-05-10T06:57:42.127Z,5.03
2018-05-10T07:00:10.486Z,4.87
2018-05-10T07:02:38.070Z,5.20
2018-05-10T07:05:05.702Z,4.47
2018-05-10T07:07:33.286Z,4.23
2018-05-10T07:10:01.772Z,3.80
2018-05-10T07:12:29.263Z,4.00
2018-05-10T07:14:56.848Z,4.23
2018-05-10T07:17:24.430Z,4.30
2018-05-10T07:19:52.016Z,3.30
2018-05-10T07:22:19.626Z,3.87
2018-05-10T07:24:47.226Z,5.30
2018-05-10T07:27:14.814Z,5.67
2018-05-10T07:29:42.396Z,5.27
2018-05-10T07:32:09.987Z,5.60
2018-05-10T07:34:38.341Z,6.13
2018-05-10T07:37:05.906Z,3.97
2018-05-10T07:39:33.515Z,4.30
2018-05-10T07:42:01.185Z,5.87
2018-05-10T07:44:28.743Z,5.50
2018-05-10T07:46:56.367Z,4.57
2018-05-10T07:49:24.759Z,5.50
2018-05-10T07:51:52.346Z,5.60
2018-05-10T07:54:19.947Z,4.63
2018-05-10T07:56:47.542Z,10.13
2018-05-10T07:59:15.102Z,7.90
2018-05-10T08:01:43.478Z,7.27
2018-05-10T08:04:11.835Z,6.50
2018-05-10T08:06:39.435Z,8.53
2018-05-10T08:09:07.022Z,5.53
2018-05-10T08:11:34.613Z,4.20
2018-05-10T08:14:02.231Z,4.70
2018-05-10T08:16:29.823Z,5.97
2018-05-10T08:18:57.433Z,5.50
2018-05-10T08:21:31.115Z,8.53
2018-05-10T08:23:59.479Z,11.07
2018-05-10T08:26:27.039Z,10.60
2018-05-10T08:28:54.629Z,8.00
2018-05-10T08:31:22.977Z,6.30
2018-05-10T08:33:50.547Z,11.30
2018-05-10T08:36:18.166Z,9.50
2018-05-10T08:38:45.756Z,9.83
2018-05-10T08:41:13.378Z,6.90
2018-05-10T08:43:40.938Z,8.23
2018-05-10T08:46:08.549Z,6.90
2018-05-10T08:48:36.111Z,6.00
2018-05-10T08:51:03.747Z,10.60
2018-05-10T08:53:31.338Z,11.00
2018-05-10T08:55:58.924Z,6.90
2018-05-10T08:58:26.511Z,5.27
2018-05-10T09:00:54.075Z,4.70
2018-05-10T09:03:21.658Z,6.80
2018-05-10T09:05:49.229Z,5.00
2018-05-10T09:08:16.814Z,4.80
2018-05-10T09:10:45.151Z,5.13
2018-05-10T09:13:12.735Z,7.90
2018-05-10T09:15:40.327Z,6.87
2018-05-10T09:18:07.975Z,7.00
2018-05-10T09:20:36.330Z,7.30
2018-05-10T09:23:04.059Z,4.63
2018-05-10T09:25:31.710Z,6.50
2018-05-10T09:27:59.303Z,4.40
2018-05-10T09:30:26.927Z,5.40
2018-05-10T09:32:54.499Z,5.15
2018-05-10T09:35:22.082Z,5.70
2018-05-10T09:37:49.662Z,6.10
2018-05-10T09:40:17.320Z,4.40
2018-05-10T09:42:45.691Z,4.03
2018-05-10T09:45:13.303Z,7.47
2018-05-10T09:47:40.870Z,6.53
2018-05-10T09:50:08.461Z,6.83
2018-05-10T09:52:36.945Z,8.43
2018-05-10T09:55:05.230Z,6.57
2018-05-10T09:57:33.806Z,6.87
2018-05-10T10:00:02.168Z,6.80
2018-05-10T10:02:29.803Z,6.80
2018-05-10T10:04:57.363Z,6.87
2018-05-10T10:07:25.714Z,7.10
2018-05-10T10:09:53.299Z,7.80
2018-05-10T10:12:20.899Z,6.60
2018-05-10T10:14:48.510Z,6.43
2018-05-10T10:17:16.863Z,6.05
2018-05-10T10:19:44.506Z,4.90
2018-05-10T10:22:12.067Z,4.40
2018-05-10T10:24:39.660Z,4.63
2018-05-10T10:27:08.011Z,3.73
2018-05-10T10:29:35.639Z,3.47
2018-05-10T10:32:04.022Z,4.20
2018-05-10T10:34:31.666Z,5.80
2018-05-10T10:37:00.031Z,5.80
2018-05-10T10:39:27.622Z,4.93
2018-05-10T10:41:55.280Z,5.50
2018-05-10T10:44:22.843Z,5.80
2018-05-10T10:46:50.438Z,5.30
2018-05-10T10:49:19.096Z,5.37
2018-05-10T10:51:46.690Z,6.70
2018-05-10T10:54:14.323Z,5.13
2018-05-10T10:56:41.926Z,6.17
2018-05-10T10:59:09.538Z,5.17
2018-05-10T11:01:37.231Z,4.70
2018-05-10T11:04:04.788Z,5.03
2018-05-10T11:06:32.378Z,5.40
2018-05-10T11:09:00.367Z,5.17
2018-05-10T11:11:27.961Z,5.40
2018-05-10T11:13:55.627Z,4.83
2018-05-10T11:16:23.251Z,5.67
2018-05-10T11:18:50.871Z,5.47
2018-05-10T11:21:18.435Z,4.47
2018-05-10T11:23:46.019Z,3.80
2018-05-10T11:26:13.612Z,2.73
2018-05-10T11:28:42.059Z,2.83
2018-05-10T11:31:09.651Z,3.00
2018-05-10T11:33:38.017Z,2.77
2018-05-10T11:36:05.670Z,2.90
2018-05-10T11:38:33.235Z,2.90
2018-05-10T11:41:00.822Z,2.30
2018-05-10T11:43:28.450Z,2.77
2018-05-10T11:45:56.066Z,3.03
2018-05-10T11:48:23.631Z,2.57
2018-05-10T11:50:51.196Z,2.50
2018-05-10T11:53:18.814Z,2.70
2018-05-10T11:55:47.146Z,2.00
2018-05-10T11:58:14.758Z,2.10
2018-05-10T12:00:43.141Z,2.83
2018-05-10T12:03:11.518Z,2.20
2018-05-10T12:05:39.843Z,2.57
2018-05-10T12:08:08.209Z,2.77
2018-05-10T12:10:35.778Z,3.33
2018-05-10T12:13:03.363Z,2.70
2018-05-10T12:15:30.951Z,3.10
2018-05-10T12:17:58.544Z,3.23
2018-05-10T12:20:26.987Z,2.80
2018-05-10T12:22:55.811Z,2.90
2018-05-10T12:25:23.406Z,2.67
2018-05-10T12:27:50.990Z,3.03
2018-05-10T12:30:18.589Z,2.83
2018-05-10T12:32:46.187Z,2.90
2018-05-10T12:35:13.798Z,2.50
2018-05-10T12:37:41.451Z,2.80
2018-05-10T12:40:09.008Z,3.50
2018-05-10T12:42:36.599Z,2.93
2018-05-10T12:45:04.227Z,3.00
2018-05-10T12:47:31.792Z,2.93
2018-05-10T12:49:59.382Z,3.10
2018-05-10T12:52:27.004Z,2.93
2018-05-10T12:54:54.589Z,2.80
2018-05-10T12:57:22.211Z,3.07
2018-05-10T12:59:49.814Z,2.80
2018-05-10T13:02:17.407Z,2.27
2018-05-10T13:04:45.732Z,2.77
2018-05-10T13:07:13.326Z,2.40
2018-05-10T13:09:40.911Z,2.67
2018-05-10T13:12:09.235Z,2.90
2018-05-10T13:14:36.846Z,3.50
2018-05-10T13:17:05.178Z,3.00
2018-05-10T13:19:32.893Z,3.20
2018-05-10T13:22:00.420Z,2.90
2018-05-10T13:24:27.983Z,2.70
2018-05-10T13:26:55.571Z,2.50
2018-05-10T13:29:23.954Z,2.67
2018-05-10T13:31:52.331Z,2.83
2018-05-10T13:34:20.655Z,3.37
2018-05-10T13:36:48.222Z,2.80
2018-05-10T13:39:15.811Z,3.40
2018-05-10T13:41:43.410Z,2.80
2018-05-10T13:44:11.003Z,2.13
2018-05-10T13:46:38.590Z,3.40
2018-05-10T13:49:06.179Z,2.70
2018-05-10T13:51:34.530Z,2.53
2018-05-10T13:54:02.118Z,3.00
2018-05-10T13:56:30.517Z,3.00
2018-05-10T13:58:58.152Z,3.17
2018-05-10T14:01:25.690Z,2.57
2018-05-10T14:03:53.294Z,2.80
2018-05-10T14:06:20.903Z,2.30
2018-05-10T14:08:48.462Z,2.07
2018-05-10T14:11:16.051Z,2.77
2018-05-10T14:13:44.387Z,2.73
2018-05-10T14:16:12.014Z,2.80
2018-05-10T14:18:39.638Z,2.70
2018-05-10T14:21:07.243Z,2.87
2018-05-10T14:23:34.826Z,3.37
2018-05-10T14:26:02.451Z,2.40
2018-05-10T14:28:30.821Z,2.77
2018-05-10T14:30:59.174Z,3.20
2018-05-10T14:33:26.758Z,2.90
2018-05-10T14:35:55.143Z,2.50
2018-05-10T14:38:23.470Z,3.10
2018-05-10T14:40:51.086Z,2.80
2018-05-10T14:43:19.415Z,2.00
2018-05-10T14:45:47.007Z,2.93
2018-05-10T14:48:14.598Z,2.63
2018-05-10T14:50:42.159Z,2.20
2018-05-10T14:53:09.774Z,2.20
2018-05-10T14:55:37.373Z,2.53
2018-05-10T14:58:05.721Z,2.10
2018-05-10T15:00:33.325Z,2.27
2018-05-10T15:03:00.920Z,2.27
2018-05-10T15:05:28.483Z,2.20
2018-05-10T15:07:56.099Z,2.13
2018-05-10T15:10:23.710Z,1.70
2018-05-10T15:12:51.271Z,5.40
2018-05-10T15:15:18.906Z,5.93
2018-05-10T15:17:46.466Z,6.30
2018-05-10T15:20:14.059Z,4.50
2018-05-10T15:22:41.651Z,5.43
2018-05-10T15:25:10.016Z,5.07
2018-05-10T15:27:37.619Z,3.37
2018-05-10T15:30:05.179Z,2.73
2018-05-10T15:32:32.740Z,3.30
2018-05-10T15:35:00.364Z,2.97
2018-05-10T15:37:28.726Z,3.60
2018-05-10T15:39:56.366Z,3.93
2018-05-10T15:42:23.955Z,2.83
2018-05-10T15:44:51.543Z,2.73
2018-05-10T15:47:19.898Z,2.60
2018-05-10T15:49:47.485Z,2.60
2018-05-10T15:52:15.834Z,2.90
2018-05-10T15:54:43.423Z,2.90
2018-05-10T15:57:11.754Z,2.80
2018-05-10T15:59:39.340Z,2.83
2018-05-10T16:02:06.930Z,2.60
2018-05-10T16:04:34.565Z,2.40
2018-05-10T16:07:02.150Z,3.10
2018-05-10T16:09:30.508Z,2.93
2018-05-10T16:11:58.935Z,2.70
2018-05-10T16:14:26.495Z,3.23
2018-05-10T16:16:54.118Z,2.57
2018-05-10T16:19:22.470Z,3.07
2018-05-10T16:21:50.067Z,2.90
2018-05-10T16:24:18.399Z,3.23
2018-05-10T16:26:45.962Z,3.53
2018-05-10T16:29:13.591Z,3.20
2018-05-10T16:31:41.167Z,3.30
2018-05-10T16:34:08.759Z,2.73
2018-05-10T16:36:36.370Z,1.73
2018-05-10T16:39:03.961Z,1.63
2018-05-10T16:41:31.587Z,1.60
2018-05-10T16:43:59.200Z,1.67
2018-05-10T16:46:26.781Z,3.70
2018-05-10T16:48:55.157Z,3.73
2018-05-10T16:51:23.523Z,3.30
2018-05-10T16:53:51.107Z,3.10
2018-05-10T16:56:19.459Z,4.77
2018-05-10T16:58:47.026Z,4.90
2018-05-10T17:01:14.639Z,4.20
2018-05-10T17:03:42.195Z,4.97
2018-05-10T17:06:09.783Z,6.70
2018-05-10T17:08:37.346Z,4.60
2018-05-10T17:11:04.954Z,7.07
2018-05-10T17:13:32.542Z,4.90
2018-05-10T17:16:00.154Z,6.20
2018-05-10T17:18:27.829Z,6.70
2018-05-10T17:20:55.361Z,7.63
2018-05-10T17:23:22.978Z,5.37
2018-05-10T17:25:50.586Z,6.40
2018-05-10T17:28:18.166Z,4.60
2018-05-10T17:30:45.723Z,5.00
2018-05-10T17:33:13.331Z,4.60
2018-05-10T17:35:40.931Z,4.30
2018-05-10T17:38:08.555Z,3.70
2018-05-10T17:40:36.152Z,3.90
2018-05-10T17:43:03.734Z,3.30
2018-05-10T17:45:31.362Z,3.40
2018-05-10T17:47:58.922Z,3.57
2018-05-10T17:50:26.483Z,3.70
2018-05-10T17:52:54.067Z,3.43
2018-05-10T17:55:21.702Z,3.13
2018-05-10T17:57:49.281Z,3.37
2018-05-10T18:00:16.901Z,3.50
2018-05-10T18:02:44.538Z,2.80
2018-05-10T18:05:12.875Z,3.57
2018-05-10T18:07:40.467Z,2.73
2018-05-10T18:10:08.847Z,3.40
2018-05-10T18:12:37.224Z,2.80
2018-05-10T18:15:05.609Z,2.50
2018-05-10T18:17:33.213Z,2.23
2018-05-10T18:20:00.822Z,2.33
2018-05-10T18:22:28.422Z,4.43
2018-05-10T18:24:56.019Z,2.63
2018-05-10T18:27:24.378Z,3.70
2018-05-10T18:29:51.991Z,5.10
2018-05-10T18:32:19.602Z,3.20
2018-05-10T18:34:47.162Z,3.07
2018-05-10T18:37:14.766Z,4.53
2018-05-10T18:39:42.993Z,3.20
2018-05-10T18:42:11.402Z,2.97
2018-05-10T18:44:39.754Z,3.90
2018-05-10T18:47:07.370Z,4.17
2018-05-10T18:49:34.984Z,4.10
2018-05-10T18:52:02.568Z,4.20
2018-05-10T18:54:30.174Z,3.90
2018-05-10T18:56:57.799Z,4.20
2018-05-10T18:59:26.202Z,7.80
2018-05-10T19:01:53.840Z,3.00
2018-05-10T19:04:21.445Z,4.47
2018-05-10T19:06:49.043Z,3.70
2018-05-10T19:09:16.670Z,3.40
2018-05-10T19:11:44.258Z,3.33
2018-05-10T19:14:11.815Z,4.33
2018-05-10T19:16:39.414Z,3.47
2018-05-10T19:19:07.006Z,3.17
2018-05-10T19:21:34.595Z,3.97
2018-05-10T19:24:02.210Z,4.03
2018-05-10T19:26:29.849Z,6.33
2018-05-10T19:28:57.383Z,4.50
2018-05-10T19:31:25.010Z,4.40
2018-05-10T19:33:53.370Z,4.60
2018-05-10T19:36:20.988Z,5.10
2018-05-10T19:38:48.599Z,4.23
2018-05-10T19:41:16.171Z,4.70
2018-05-10T19:43:44.519Z,7.10
2018-05-10T19:46:12.081Z,4.97
2018-05-10T19:48:40.455Z,4.43
2018-05-10T19:51:08.010Z,5.20
2018-05-10T19:53:35.573Z,5.10
2018-05-10T19:56:03.954Z,5.30
2018-05-10T19:58:31.542Z,4.73
2018-05-10T20:00:59.158Z,5.30
2018-05-10T20:03:27.482Z,6.37
2018-05-10T20:05:55.077Z,5.50
2018-05-10T20:08:22.669Z,5.60
2018-05-10T20:10:50.284Z,4.73
2018-05-10T20:13:17.904Z,7.13
2018-05-10T20:15:45.526Z,6.80
2018-05-10T20:18:13.091Z,6.27
2018-05-10T20:20:40.706Z,7.10
2018-05-10T20:23:08.343Z,5.80
2018-05-10T20:25:35.932Z,6.53
2018-05-10T20:28:03.515Z,6.60
2018-05-10T20:30:31.126Z,6.57
2018-05-10T20:32:59.478Z,5.90
2018-05-10T20:35:27.048Z,5.90
2018-05-10T20:37:54.660Z,6.17
2018-05-10T20:40:22.223Z,4.50
2018-05-10T20:42:50.558Z,4.20
2018-05-10T20:45:18.171Z,4.20
2018-05-10T20:47:45.751Z,4.10
2018-05-10T20:50:13.329Z,4.20
2018-05-10T20:52:41.666Z,4.67
2018-05-10T20:55:10.049Z,5.73
2018-05-10T20:57:37.666Z,4.17
2018-05-10T21:00:05.258Z,4.30
2018-05-10T21:02:32.826Z,6.77
2018-05-10T21:05:00.410Z,5.50
2018-05-10T21:07:28.050Z,5.10
2018-05-10T21:09:55.694Z,4.63
2018-05-10T21:12:45.107Z,4.47
2018-05-10T21:15:12.662Z,4.00
2018-05-10T21:17:40.250Z,5.73
2018-05-10T21:20:07.842Z,5.40
2018-05-10T21:22:36.167Z,3.50
2018-05-10T21:25:03.778Z,4.57
2018-05-10T21:27:32.154Z,5.60
2018-05-10T21:30:00.483Z,4.40
2018-05-10T21:32:28.091Z,5.73
2018-05-10T21:34:55.660Z,5.40
2018-05-10T21:37:23.275Z,4.73
2018-05-10T21:39:50.863Z,4.77
2018-05-10T21:42:18.483Z,4.10
2018-05-10T21:44:46.127Z,4.00
2018-05-10T21:47:14.477Z,4.07
2018-05-10T21:49:53.894Z,4.77
2018-05-10T21:52:21.482Z,4.30
2018-05-10T21:54:49.069Z,5.17
2018-05-10T21:57:17.418Z,3.73
2018-05-10T21:59:44.983Z,4.60
2018-05-10T22:02:12.587Z,5.13
2018-05-10T22:04:40.198Z,5.53
2018-05-10T22:07:07.787Z,4.30
2018-05-10T22:09:36.158Z,5.00
2018-05-10T22:12:04.535Z,5.00
2018-05-10T22:14:32.065Z,4.37
2018-05-10T22:16:59.673Z,5.57
2018-05-10T22:19:28.094Z,3.50
2018-05-10T22:21:55.679Z,5.13
2018-05-10T22:24:23.294Z,3.53
2018-05-10T22:26:50.882Z,3.80
2018-05-10T22:29:19.234Z,3.40
2018-05-10T22:31:46.846Z,4.20
2018-05-10T22:34:14.430Z,3.70
2018-05-10T22:36:42.043Z,5.63
2018-05-10T22:39:09.676Z,5.83
2018-05-10T22:41:37.262Z,4.40
2018-05-10T22:44:04.823Z,4.40
2018-05-10T22:46:32.408Z,4.13
2018-05-10T22:49:00.015Z,4.90
2018-05-10T22:51:27.605Z,5.53
2018-05-10T22:53:55.159Z,3.90
2018-05-10T22:56:22.911Z,4.53
2018-05-10T22:58:50.630Z,5.43
2018-05-10T23:01:18.217Z,4.03
2018-05-10T23:03:46.534Z,3.70
2018-05-10T23:06:14.151Z,3.47
2018-05-10T23:08:41.733Z,3.90
2018-05-10T23:11:09.361Z,4.33
2018-05-10T23:13:37.687Z,4.07
2018-05-10T23:16:05.270Z,3.77
2018-05-10T23:18:32.862Z,5.40
2018-05-10T23:21:01.242Z,5.30
2018-05-10T23:23:29.591Z,4.63
2018-05-10T23:25:57.203Z,4.07
2018-05-10T23:28:25.583Z,4.30
2018-05-10T23:30:53.903Z,4.23
2018-05-10T23:33:22.294Z,5.03
2018-05-10T23:35:50.638Z,4.17
2018-05-10T23:38:18.259Z,3.47
2018-05-10T23:40:45.866Z,3.70
2018-05-10T23:43:13.451Z,5.30
2018-05-10T23:45:41.793Z,3.80
2018-05-10T23:48:09.359Z,3.73
2018-05-10T23:50:36.947Z,3.87
2018-05-10T23:53:05.294Z,6.80
2018-05-10T23:55:32.883Z,4.07
2018-05-10T23:58:00.470Z,3.50
